Aviation Digital Data Service (ADDS)

Output produced by METARs form (0307 UTC 22 April 2019)
found at http://www.aviationweather.gov/metar/data/
 
METAR text: UHPP 220230Z VRB01MPS 9999 BKN045 05/M05 Q1022 R16R/CLRD70 NOSIG RMK MT OBSC QFE763/1018
Conditions at: UHPP (PETROPAVLOVSK-KA, RU) observed 0230 UTC 22 April 2019
Temperature: 5.0°C (41°F)
Dewpoint: -5.0°C (23°F) [RH = 48%]
Pressure (altimeter): 30.18 inches Hg (1022.0 mb)
Winds: variable direction winds at 2 MPH (2 knots; 1.0 m/s)
Visibility: 6 or more miles (10+ km)
Ceiling: 4500 feet AGL
Clouds: broken clouds at 4500 feet AGL
Weather: no significant weather observed at this time

METAR text: UHPP 220200Z VRB01MPS 9999 BKN044 04/M05 Q1022 R16R/CLRD70 NOSIG RMK MT OBSC QFE763/1018
Conditions at: UHPP (PETROPAVLOVSK-KA, RU) observed 0200 UTC 22 April 2019
Temperature: 4.0°C (39°F)
Dewpoint: -5.0°C (23°F) [RH = 52%]
Pressure (altimeter): 30.18 inches Hg (1022.0 mb)
Winds: variable direction winds at 2 MPH (2 knots; 1.0 m/s)
Visibility: 6 or more miles (10+ km)
Ceiling: 4400 feet AGL
Clouds: broken clouds at 4400 feet AGL
Weather: no significant weather observed at this time

METAR text: UHPP 220130Z 14002MPS 080V200 9999 BKN037 05/M04 Q1022 R16R/CLRD70 NOSIG RMK MT OBSC QFE763/1018
Conditions at: UHPP (PETROPAVLOVSK-KA, RU) observed 0130 UTC 22 April 2019
Temperature: 5.0°C (41°F)
Dewpoint: -4.0°C (25°F) [RH = 52%]
Pressure (altimeter): 30.18 inches Hg (1022.0 mb)
Winds: from the SE (140 degrees) at 5 MPH (4 knots; 2.1 m/s)
Visibility: 6 or more miles (10+ km)
Ceiling: 3700 feet AGL
Clouds: broken clouds at 3700 feet AGL
Weather: no significant weather observed at this time

METAR text: UHPP 220100Z VRB01MPS 9999 FEW033CB BKN047 03/M04 Q1023 R16R/CLRD70 NOSIG RMK MT OBSC QFE764/1019
Conditions at: UHPP (PETROPAVLOVSK-KA, RU) observed 0100 UTC 22 April 2019
Temperature: 3.0°C (37°F)
Dewpoint: -4.0°C (25°F) [RH = 60%]
Pressure (altimeter): 30.21 inches Hg (1023.0 mb)
Winds: variable direction winds at 2 MPH (2 knots; 1.0 m/s)
Visibility: 6 or more miles (10+ km)
Ceiling: 4700 feet AGL
Clouds: few clouds at 3300 feet AGL
broken clouds at 4700 feet AGL
Weather: no significant weather observed at this time

METAR text: UHPP 220030Z 26002MPS 9999 FEW033CB BKN047 03/M05 Q1023 R16R/CLRD70 NOSIG RMK MT OBSC QFE764/1019
Conditions at: UHPP (PETROPAVLOVSK-KA, RU) observed 0030 UTC 22 April 2019
Temperature: 3.0°C (37°F)
Dewpoint: -5.0°C (23°F) [RH = 56%]
Pressure (altimeter): 30.21 inches Hg (1023.0 mb)
Winds: from the W (260 degrees) at 5 MPH (4 knots; 2.1 m/s)
Visibility: 6 or more miles (10+ km)
Ceiling: 4700 feet AGL
Clouds: few clouds at 3300 feet AGL
broken clouds at 4700 feet AGL
Weather: no significant weather observed at this time

METAR text: UHPP 220000Z 19002MPS 110V240 9999 BKN039 03/M04 Q1023 R16R/CLRD70 NOSIG RMK MT OBSC QFE764/1019
Conditions at: UHPP (PETROPAVLOVSK-KA, RU) observed 0000 UTC 22 April 2019
Temperature: 3.0°C (37°F)
Dewpoint: -4.0°C (25°F) [RH = 60%]
Pressure (altimeter): 30.21 inches Hg (1023.0 mb)
Winds: from the S (190 degrees) at 5 MPH (4 knots; 2.1 m/s)
Visibility: 6 or more miles (10+ km)
Ceiling: 3900 feet AGL
Clouds: broken clouds at 3900 feet AGL
Weather: no significant weather observed at this time

METAR text: UHPP 212330Z VRB01MPS 9999 BKN044 03/M04 Q1023 R16R/CLRD70 NOSIG RMK MT OBSC QFE764/1019
Conditions at: UHPP (PETROPAVLOVSK-KA, RU) observed 2330 UTC 21 April 2019
Temperature: 3.0°C (37°F)
Dewpoint: -4.0°C (25°F) [RH = 60%]
Pressure (altimeter): 30.21 inches Hg (1023.0 mb)
Winds: variable direction winds at 2 MPH (2 knots; 1.0 m/s)
Visibility: 6 or more miles (10+ km)
Ceiling: 4400 feet AGL
Clouds: broken clouds at 4400 feet AGL
Weather: no significant weather observed at this time

METAR text: UHPP 212300Z 00000MPS 9999 BKN042 03/M04 Q1023 R16R/CLRD70 NOSIG RMK MT OBSC QFE764/1019
Conditions at: UHPP (PETROPAVLOVSK-KA, RU) observed 2300 UTC 21 April 2019
Temperature: 3.0°C (37°F)
Dewpoint: -4.0°C (25°F) [RH = 60%]
Pressure (altimeter): 30.21 inches Hg (1023.0 mb)
Winds: calm
Visibility: 6 or more miles (10+ km)
Ceiling: 4200 feet AGL
Clouds: broken clouds at 4200 feet AGL
Weather: no significant weather observed at this time

METAR text: UHPP 212230Z VRB01MPS 9999 BKN042 02/M04 Q1023 R16R/CLRD70 NOSIG RMK MT OBSC QFE764/1019
Conditions at: UHPP (PETROPAVLOVSK-KA, RU) observed 2230 UTC 21 April 2019
Temperature: 2.0°C (36°F)
Dewpoint: -4.0°C (25°F) [RH = 64%]
Pressure (altimeter): 30.21 inches Hg (1023.0 mb)
Winds: variable direction winds at 2 MPH (2 knots; 1.0 m/s)
Visibility: 6 or more miles (10+ km)
Ceiling: 4200 feet AGL
Clouds: broken clouds at 4200 feet AGL
Weather: no significant weather observed at this time

METAR text: UHPP 212200Z VRB01MPS 9999 BKN042 02/M03 Q1023 R16R/CLRD70 NOSIG RMK MT OBSC QFE764/1019
Conditions at: UHPP (PETROPAVLOVSK-KA, RU) observed 2200 UTC 21 April 2019
Temperature: 2.0°C (36°F)
Dewpoint: -3.0°C (27°F) [RH = 69%]
Pressure (altimeter): 30.21 inches Hg (1023.0 mb)
Winds: variable direction winds at 2 MPH (2 knots; 1.0 m/s)
Visibility: 6 or more miles (10+ km)
Ceiling: 4200 feet AGL
Clouds: broken clouds at 4200 feet AGL
Weather: no significant weather observed at this time

METAR text: UHPP 212130Z VRB01MPS 9999 BKN044 01/M03 Q1023 R16R/CLRD70 NOSIG RMK MT OBSC QFE764/1019
Conditions at: UHPP (PETROPAVLOVSK-KA, RU) observed 2130 UTC 21 April 2019
Temperature: 1.0°C (34°F)
Dewpoint: -3.0°C (27°F) [RH = 75%]
Pressure (altimeter): 30.21 inches Hg (1023.0 mb)
Winds: variable direction winds at 2 MPH (2 knots; 1.0 m/s)
Visibility: 6 or more miles (10+ km)
Ceiling: 4400 feet AGL
Clouds: broken clouds at 4400 feet AGL
Weather: no significant weather observed at this time

METAR text: UHPP 212100Z VRB01MPS 9999 BKN044 00/M04 Q1023 R16R/CLRD70 NOSIG RMK MT OBSC QFE764/1019
Conditions at: UHPP (PETROPAVLOVSK-KA, RU) observed 2100 UTC 21 April 2019
Temperature: 0.0°C (32°F)
Dewpoint: -4.0°C (25°F) [RH = 74%]
Pressure (altimeter): 30.21 inches Hg (1023.0 mb)
Winds: variable direction winds at 2 MPH (2 knots; 1.0 m/s)
Visibility: 6 or more miles (10+ km)
Ceiling: 4400 feet AGL
Clouds: broken clouds at 4400 feet AGL
Weather: no significant weather observed at this time

METAR text: UHPP 212030Z 35002MPS 9999 BKN042 M01/M04 Q1023 R16R/CLRD70 NOSIG RMK MT OBSC QFE764/1019
Conditions at: UHPP (PETROPAVLOVSK-KA, RU) observed 2030 UTC 21 April 2019
Temperature: -1.0°C (30°F)
Dewpoint: -4.0°C (25°F) [RH = 80%]
Pressure (altimeter): 30.21 inches Hg (1023.0 mb)
Winds: from the N (350 degrees) at 5 MPH (4 knots; 2.1 m/s)
Visibility: 6 or more miles (10+ km)
Ceiling: 4200 feet AGL
Clouds: broken clouds at 4200 feet AGL
Weather: no significant weather observed at this time

METAR text: UHPP 212000Z 01002MPS 9999 BKN044 M01/M04 Q1023 R16R/CLRD70 NOSIG RMK MT OBSC QFE764/1019
Conditions at: UHPP (PETROPAVLOVSK-KA, RU) observed 2000 UTC 21 April 2019
Temperature: -1.0°C (30°F)
Dewpoint: -4.0°C (25°F) [RH = 80%]
Pressure (altimeter): 30.21 inches Hg (1023.0 mb)
Winds: from the N (10 degrees) at 5 MPH (4 knots; 2.1 m/s)
Visibility: 6 or more miles (10+ km)
Ceiling: 4400 feet AGL
Clouds: broken clouds at 4400 feet AGL
Weather: no significant weather observed at this time

METAR text: UHPP 211930Z 02002MPS 9999 BKN044 M02/M05 Q1023 R16R/CLRD70 NOSIG RMK MT OBSC QFE764/1019
Conditions at: UHPP (PETROPAVLOVSK-KA, RU) observed 1930 UTC 21 April 2019
Temperature: -2.0°C (28°F)
Dewpoint: -5.0°C (23°F) [RH = 80%]
Pressure (altimeter): 30.21 inches Hg (1023.0 mb)
Winds: from the NNE (20 degrees) at 5 MPH (4 knots; 2.1 m/s)
Visibility: 6 or more miles (10+ km)
Ceiling: 4400 feet AGL
Clouds: broken clouds at 4400 feet AGL
Weather: no significant weather observed at this time

METAR text: UHPP 211900Z 35001MPS 9999 BKN044 M01/M05 Q1023 R16R/CLRD70 NOSIG RMK MT OBSC QFE764/1019
Conditions at: UHPP (PETROPAVLOVSK-KA, RU) observed 1900 UTC 21 April 2019
Temperature: -1.0°C (30°F)
Dewpoint: -5.0°C (23°F) [RH = 74%]
Pressure (altimeter): 30.21 inches Hg (1023.0 mb)
Winds: from the N (350 degrees) at 2 MPH (2 knots; 1.0 m/s)
Visibility: 6 or more miles (10+ km)
Ceiling: 4400 feet AGL
Clouds: broken clouds at 4400 feet AGL
Weather: no significant weather observed at this time

METAR text: UHPP 211800Z 07002MPS 9999 BKN041 M02/M05 Q1023 R16R/CLRD70 NOSIG RMK MT OBSC QFE764/1019
Conditions at: UHPP (PETROPAVLOVSK-KA, RU) observed 1800 UTC 21 April 2019
Temperature: -2.0°C (28°F)
Dewpoint: -5.0°C (23°F) [RH = 80%]
Pressure (altimeter): 30.21 inches Hg (1023.0 mb)
Winds: from the ENE (70 degrees) at 5 MPH (4 knots; 2.1 m/s)
Visibility: 6 or more miles (10+ km)
Ceiling: 4100 feet AGL
Clouds: broken clouds at 4100 feet AGL
Weather: no significant weather observed at this time

METAR text: UHPP 211700Z 06003MPS 9999 BKN042 M02/M05 Q1023 R16R/CLRD70 NOSIG RMK QFE764/1019
Conditions at: UHPP (PETROPAVLOVSK-KA, RU) observed 1700 UTC 21 April 2019
Temperature: -2.0°C (28°F)
Dewpoint: -5.0°C (23°F) [RH = 80%]
Pressure (altimeter): 30.21 inches Hg (1023.0 mb)
Winds: from the ENE (60 degrees) at 7 MPH (6 knots; 3.1 m/s)
Visibility: 6 or more miles (10+ km)
Ceiling: 4200 feet AGL
Clouds: broken clouds at 4200 feet AGL
Weather: no significant weather observed at this time

METAR text: UHPP 211600Z 08002MPS 9999 BKN042 M03/M06 Q1023 R16R/CLRD70 NOSIG RMK QFE764/1019
Conditions at: UHPP (PETROPAVLOVSK-KA, RU) observed 1600 UTC 21 April 2019
Temperature: -3.0°C (27°F)
Dewpoint: -6.0°C (21°F) [RH = 80%]
Pressure (altimeter): 30.21 inches Hg (1023.0 mb)
Winds: from the E (80 degrees) at 5 MPH (4 knots; 2.1 m/s)
Visibility: 6 or more miles (10+ km)
Ceiling: 4200 feet AGL
Clouds: broken clouds at 4200 feet AGL
Weather: no significant weather observed at this time

METAR text: UHPP 211500Z 09001MPS 9999 NSC M03/M06 Q1024 R16R/CLRD70 NOSIG RMK QFE764/1019
Conditions at: UHPP (PETROPAVLOVSK-KA, RU) observed 1500 UTC 21 April 2019
Temperature: -3.0°C (27°F)
Dewpoint: -6.0°C (21°F) [RH = 80%]
Pressure (altimeter): 30.24 inches Hg (1024.0 mb)
Winds: from the E (90 degrees) at 2 MPH (2 knots; 1.0 m/s)
Visibility: 6 or more miles (10+ km)
Ceiling: at least 12,000 feet AGL
Clouds: sky clear below 12,000 feet AGL
Weather: no significant weather observed at this time

METAR text: UHPP 211400Z 02002MPS 9999 NSC M03/M05 Q1024 R16R/CLRD70 NOSIG RMK QFE765/1020
Conditions at: UHPP (PETROPAVLOVSK-KA, RU) observed 1400 UTC 21 April 2019
Temperature: -3.0°C (27°F)
Dewpoint: -5.0°C (23°F) [RH = 86%]
Pressure (altimeter): 30.24 inches Hg (1024.0 mb)
Winds: from the NNE (20 degrees) at 5 MPH (4 knots; 2.1 m/s)
Visibility: 6 or more miles (10+ km)
Ceiling: at least 12,000 feet AGL
Clouds: sky clear below 12,000 feet AGL
Weather: no significant weather observed at this time

METAR text: UHPP 211300Z 05002MPS 9999 NSC M02/M05 Q1024 R16R/CLRD70 NOSIG RMK QFE764/1019
Conditions at: UHPP (PETROPAVLOVSK-KA, RU) observed 1300 UTC 21 April 2019
Temperature: -2.0°C (28°F)
Dewpoint: -5.0°C (23°F) [RH = 80%]
Pressure (altimeter): 30.24 inches Hg (1024.0 mb)
Winds: from the NE (50 degrees) at 5 MPH (4 knots; 2.1 m/s)
Visibility: 6 or more miles (10+ km)
Ceiling: at least 12,000 feet AGL
Clouds: sky clear below 12,000 feet AGL
Weather: no significant weather observed at this time

METAR text: UHPP 211200Z 35002MPS 300V070 9999 NSC M01/M04 Q1023 R16R/CLRD70 NOSIG RMK QFE764/1019
Conditions at: UHPP (PETROPAVLOVSK-KA, RU) observed 1200 UTC 21 April 2019
Temperature: -1.0°C (30°F)
Dewpoint: -4.0°C (25°F) [RH = 80%]
Pressure (altimeter): 30.21 inches Hg (1023.0 mb)
Winds: from the N (350 degrees) at 5 MPH (4 knots; 2.1 m/s)
Visibility: 6 or more miles (10+ km)
Ceiling: at least 12,000 feet AGL
Clouds: sky clear below 12,000 feet AGL
Weather: no significant weather observed at this time

METAR text: UHPP 211100Z VRB01MPS 9999 NSC 00/M04 Q1023 R16R/CLRD70 NOSIG RMK QFE764/1019
Conditions at: UHPP (PETROPAVLOVSK-KA, RU) observed 1100 UTC 21 April 2019
Temperature: 0.0°C (32°F)
Dewpoint: -4.0°C (25°F) [RH = 74%]
Pressure (altimeter): 30.21 inches Hg (1023.0 mb)
Winds: variable direction winds at 2 MPH (2 knots; 1.0 m/s)
Visibility: 6 or more miles (10+ km)
Ceiling: at least 12,000 feet AGL
Clouds: sky clear below 12,000 feet AGL
Weather: no significant weather observed at this time

METAR text: UHPP 211000Z 11003MPS 9999 NSC 01/M03 Q1023 R16R/CLRD70 NOSIG RMK QFE764/1019
Conditions at: UHPP (PETROPAVLOVSK-KA, RU) observed 1000 UTC 21 April 2019
Temperature: 1.0°C (34°F)
Dewpoint: -3.0°C (27°F) [RH = 75%]
Pressure (altimeter): 30.21 inches Hg (1023.0 mb)
Winds: from the ESE (110 degrees) at 7 MPH (6 knots; 3.1 m/s)
Visibility: 6 or more miles (10+ km)
Ceiling: at least 12,000 feet AGL
Clouds: sky clear below 12,000 feet AGL
Weather: no significant weather observed at this time

METAR text: UHPP 210900Z 14003MPS 9999 NSC 02/M03 Q1023 R16R/CLRD70 NOSIG RMK QFE764/1019
Conditions at: UHPP (PETROPAVLOVSK-KA, RU) observed 0900 UTC 21 April 2019
Temperature: 2.0°C (36°F)
Dewpoint: -3.0°C (27°F) [RH = 69%]
Pressure (altimeter): 30.21 inches Hg (1023.0 mb)
Winds: from the SE (140 degrees) at 7 MPH (6 knots; 3.1 m/s)
Visibility: 6 or more miles (10+ km)
Ceiling: at least 12,000 feet AGL
Clouds: sky clear below 12,000 feet AGL
Weather: no significant weather observed at this time

METAR text: UHPP 210800Z 16004MPS 9999 NSC 04/M02 Q1022 R16R/CLRD70 NOSIG RMK QFE764/1018
Conditions at: UHPP (PETROPAVLOVSK-KA, RU) observed 0800 UTC 21 April 2019
Temperature: 4.0°C (39°F)
Dewpoint: -2.0°C (28°F) [RH = 65%]
Pressure (altimeter): 30.18 inches Hg (1022.0 mb)
Winds: from the SSE (160 degrees) at 9 MPH (8 knots; 4.1 m/s)
Visibility: 6 or more miles (10+ km)
Ceiling: at least 12,000 feet AGL
Clouds: sky clear below 12,000 feet AGL
Weather: no significant weather observed at this time

METAR text: UHPP 210700Z 17005MPS 9999 NSC 05/M02 Q1022 R16R/CLRD70 NOSIG RMK QFE764/1018
Conditions at: UHPP (PETROPAVLOVSK-KA, RU) observed 0700 UTC 21 April 2019
Temperature: 5.0°C (41°F)
Dewpoint: -2.0°C (28°F) [RH = 60%]
Pressure (altimeter): 30.18 inches Hg (1022.0 mb)
Winds: from the S (170 degrees) at 12 MPH (10 knots; 5.1 m/s)
Visibility: 6 or more miles (10+ km)
Ceiling: at least 12,000 feet AGL
Clouds: sky clear below 12,000 feet AGL
Weather: no significant weather observed at this time

METAR text: UHPP 210600Z 16005MPS 9999 NSC 06/M02 Q1022 R16R/CLRD70 NOSIG RMK QFE763/1018
Conditions at: UHPP (PETROPAVLOVSK-KA, RU) observed 0600 UTC 21 April 2019
Temperature: 6.0°C (43°F)
Dewpoint: -2.0°C (28°F) [RH = 56%]
Pressure (altimeter): 30.18 inches Hg (1022.0 mb)
Winds: from the SSE (160 degrees) at 12 MPH (10 knots; 5.1 m/s)
Visibility: 6 or more miles (10+ km)
Ceiling: at least 12,000 feet AGL
Clouds: sky clear below 12,000 feet AGL
Weather: no significant weather observed at this time

METAR text: UHPP 210530Z 16006MPS 9999 NSC 06/M02 Q1022 R16R/CLRD70 NOSIG RMK QFE763/1018
Conditions at: UHPP (PETROPAVLOVSK-KA, RU) observed 0530 UTC 21 April 2019
Temperature: 6.0°C (43°F)
Dewpoint: -2.0°C (28°F) [RH = 56%]
Pressure (altimeter): 30.18 inches Hg (1022.0 mb)
Winds: from the SSE (160 degrees) at 14 MPH (12 knots; 6.2 m/s)
Visibility: 6 or more miles (10+ km)
Ceiling: at least 12,000 feet AGL
Clouds: sky clear below 12,000 feet AGL
Weather: no significant weather observed at this time

METAR text: UHPP 210500Z 16006MPS 9999 NSC 07/M02 Q1022 R16R/CLRD70 NOSIG RMK QFE763/1018
Conditions at: UHPP (PETROPAVLOVSK-KA, RU) observed 0500 UTC 21 April 2019
Temperature: 7.0°C (45°F)
Dewpoint: -2.0°C (28°F) [RH = 53%]
Pressure (altimeter): 30.18 inches Hg (1022.0 mb)
Winds: from the SSE (160 degrees) at 14 MPH (12 knots; 6.2 m/s)
Visibility: 6 or more miles (10+ km)
Ceiling: at least 12,000 feet AGL
Clouds: sky clear below 12,000 feet AGL
Weather: no significant weather observed at this time

METAR text: UHPP 210430Z 16006MPS 140V210 9999 NSC 06/M01 Q1022 R16R/CLRD70 NOSIG RMK QFE763/1018
Conditions at: UHPP (PETROPAVLOVSK-KA, RU) observed 0430 UTC 21 April 2019
Temperature: 6.0°C (43°F)
Dewpoint: -1.0°C (30°F) [RH = 61%]
Pressure (altimeter): 30.18 inches Hg (1022.0 mb)
Winds: from the SSE (160 degrees) at 14 MPH (12 knots; 6.2 m/s)
Visibility: 6 or more miles (10+ km)
Ceiling: at least 12,000 feet AGL
Clouds: sky clear below 12,000 feet AGL
Weather: no significant weather observed at this time

METAR text: UHPP 210400Z 18004MPS 140V220 9999 NSC 06/M03 Q1022 R16R/CLRD70 NOSIG RMK QFE763/1018
Conditions at: UHPP (PETROPAVLOVSK-KA, RU) observed 0400 UTC 21 April 2019
Temperature: 6.0°C (43°F)
Dewpoint: -3.0°C (27°F) [RH = 52%]
Pressure (altimeter): 30.18 inches Hg (1022.0 mb)
Winds: from the S (180 degrees) at 9 MPH (8 knots; 4.1 m/s)
Visibility: 6 or more miles (10+ km)
Ceiling: at least 12,000 feet AGL
Clouds: sky clear below 12,000 feet AGL
Weather: no significant weather observed at this time

METAR text: UHPP 210330Z 18005MPS 160V220 9999 FEW040 06/M03 Q1023 R16R/CLRD70 NOSIG RMK QFE764/1018
Conditions at: UHPP (PETROPAVLOVSK-KA, RU) observed 0330 UTC 21 April 2019
Temperature: 6.0°C (43°F)
Dewpoint: -3.0°C (27°F) [RH = 52%]
Pressure (altimeter): 30.21 inches Hg (1023.0 mb)
Winds: from the S (180 degrees) at 12 MPH (10 knots; 5.1 m/s)
Visibility: 6 or more miles (10+ km)
Ceiling: at least 12,000 feet AGL
Clouds: few clouds at 4000 feet AGL
Weather: no significant weather observed at this time

METAR text: UHPP 210300Z 21004MPS 160V250 9999 FEW040 06/M03 Q1023 R16R/CLRD70 NOSIG RMK QFE764/1019
Conditions at: UHPP (PETROPAVLOVSK-KA, RU) observed 0300 UTC 21 April 2019
Temperature: 6.0°C (43°F)
Dewpoint: -3.0°C (27°F) [RH = 52%]
Pressure (altimeter): 30.21 inches Hg (1023.0 mb)
Winds: from the SSW (210 degrees) at 9 MPH (8 knots; 4.1 m/s)
Visibility: 6 or more miles (10+ km)
Ceiling: at least 12,000 feet AGL
Clouds: few clouds at 4000 feet AGL
Weather: no significant weather observed at this time

METAR text: UHPP 210230Z 20004MPS 170V250 9999 FEW040 07/M03 Q1023 R16R/CLRD70 NOSIG RMK QFE764/1019
Conditions at: UHPP (PETROPAVLOVSK-KA, RU) observed 0230 UTC 21 April 2019
Temperature: 7.0°C (45°F)
Dewpoint: -3.0°C (27°F) [RH = 49%]
Pressure (altimeter): 30.21 inches Hg (1023.0 mb)
Winds: from the SSW (200 degrees) at 9 MPH (8 knots; 4.1 m/s)
Visibility: 6 or more miles (10+ km)
Ceiling: at least 12,000 feet AGL
Clouds: few clouds at 4000 feet AGL
Weather: no significant weather observed at this time

METAR text: UHPP 210200Z 18003MPS 130V270 9999 FEW040 07/M03 Q1023 R16R/CLRD70 NOSIG RMK QFE764/1019
Conditions at: UHPP (PETROPAVLOVSK-KA, RU) observed 0200 UTC 21 April 2019
Temperature: 7.0°C (45°F)
Dewpoint: -3.0°C (27°F) [RH = 49%]
Pressure (altimeter): 30.21 inches Hg (1023.0 mb)
Winds: from the S (180 degrees) at 7 MPH (6 knots; 3.1 m/s)
Visibility: 6 or more miles (10+ km)
Ceiling: at least 12,000 feet AGL
Clouds: few clouds at 4000 feet AGL
Weather: no significant weather observed at this time

METAR text: UHPP 210130Z 17003MPS 9999 FEW036 06/M03 Q1023 R16R/CLRD70 NOSIG RMK QFE764/1019
Conditions at: UHPP (PETROPAVLOVSK-KA, RU) observed 0130 UTC 21 April 2019
Temperature: 6.0°C (43°F)
Dewpoint: -3.0°C (27°F) [RH = 52%]
Pressure (altimeter): 30.21 inches Hg (1023.0 mb)
Winds: from the S (170 degrees) at 7 MPH (6 knots; 3.1 m/s)
Visibility: 6 or more miles (10+ km)
Ceiling: at least 12,000 feet AGL
Clouds: few clouds at 3600 feet AGL
Weather: no significant weather observed at this time

METAR text: UHPP 210100Z 15002MPS 080V210 9999 FEW036 06/M04 Q1024 R34L/CLRD70 NOSIG RMK QFE764/1019
Conditions at: UHPP (PETROPAVLOVSK-KA, RU) observed 0100 UTC 21 April 2019
Temperature: 6.0°C (43°F)
Dewpoint: -4.0°C (25°F) [RH = 49%]
Pressure (altimeter): 30.24 inches Hg (1024.0 mb)
Winds: from the SSE (150 degrees) at 5 MPH (4 knots; 2.1 m/s)
Visibility: 6 or more miles (10+ km)
Ceiling: at least 12,000 feet AGL
Clouds: few clouds at 3600 feet AGL
Weather: no significant weather observed at this time

METAR text: UHPP 210030Z 03002MPS 9999 FEW036 06/M02 Q1024 R34L/CLRD70 NOSIG RMK QFE764/1019
Conditions at: UHPP (PETROPAVLOVSK-KA, RU) observed 0030 UTC 21 April 2019
Temperature: 6.0°C (43°F)
Dewpoint: -2.0°C (28°F) [RH = 56%]
Pressure (altimeter): 30.24 inches Hg (1024.0 mb)
Winds: from the NNE (30 degrees) at 5 MPH (4 knots; 2.1 m/s)
Visibility: 6 or more miles (10+ km)
Ceiling: at least 12,000 feet AGL
Clouds: few clouds at 3600 feet AGL
Weather: no significant weather observed at this time

METAR text: UHPP 210000Z VRB01MPS 9999 NSC 05/M04 Q1024 R34L/CLRD70 NOSIG RMK QFE764/1019
Conditions at: UHPP (PETROPAVLOVSK-KA, RU) observed 0000 UTC 21 April 2019
Temperature: 5.0°C (41°F)
Dewpoint: -4.0°C (25°F) [RH = 52%]
Pressure (altimeter): 30.24 inches Hg (1024.0 mb)
Winds: variable direction winds at 2 MPH (2 knots; 1.0 m/s)
Visibility: 6 or more miles (10+ km)
Ceiling: at least 12,000 feet AGL
Clouds: sky clear below 12,000 feet AGL
Weather: no significant weather observed at this time

METAR text: UHPP 202330Z VRB01MPS 9999 NSC 04/M04 Q1024 R34L/CLRD70 NOSIG RMK QFE765/1020
Conditions at: UHPP (PETROPAVLOVSK-KA, RU) observed 2330 UTC 20 April 2019
Temperature: 4.0°C (39°F)
Dewpoint: -4.0°C (25°F) [RH = 56%]
Pressure (altimeter): 30.24 inches Hg (1024.0 mb)
Winds: variable direction winds at 2 MPH (2 knots; 1.0 m/s)
Visibility: 6 or more miles (10+ km)
Ceiling: at least 12,000 feet AGL
Clouds: sky clear below 12,000 feet AGL
Weather: no significant weather observed at this time

METAR text: UHPP 202300Z VRB01MPS 9999 NSC 03/M03 Q1025 R34L/CLRD70 NOSIG RMK QFE765/1020
Conditions at: UHPP (PETROPAVLOVSK-KA, RU) observed 2300 UTC 20 April 2019
Temperature: 3.0°C (37°F)
Dewpoint: -3.0°C (27°F) [RH = 65%]
Pressure (altimeter): 30.27 inches Hg (1025.0 mb)
Winds: variable direction winds at 2 MPH (2 knots; 1.0 m/s)
Visibility: 6 or more miles (10+ km)
Ceiling: at least 12,000 feet AGL
Clouds: sky clear below 12,000 feet AGL
Weather: no significant weather observed at this time

METAR text: UHPP 202230Z VRB01MPS 9999 NSC 03/M04 Q1025 R34L/CLRD70 NOSIG RMK QFE765/1020
Conditions at: UHPP (PETROPAVLOVSK-KA, RU) observed 2230 UTC 20 April 2019
Temperature: 3.0°C (37°F)
Dewpoint: -4.0°C (25°F) [RH = 60%]
Pressure (altimeter): 30.27 inches Hg (1025.0 mb)
Winds: variable direction winds at 2 MPH (2 knots; 1.0 m/s)
Visibility: 6 or more miles (10+ km)
Ceiling: at least 12,000 feet AGL
Clouds: sky clear below 12,000 feet AGL
Weather: no significant weather observed at this time

METAR text: UHPP 202200Z VRB01MPS 9999 NSC 02/M03 Q1025 R34L/CLRD70 NOSIG RMK QFE765/1020
Conditions at: UHPP (PETROPAVLOVSK-KA, RU) observed 2200 UTC 20 April 2019
Temperature: 2.0°C (36°F)
Dewpoint: -3.0°C (27°F) [RH = 69%]
Pressure (altimeter): 30.27 inches Hg (1025.0 mb)
Winds: variable direction winds at 2 MPH (2 knots; 1.0 m/s)
Visibility: 6 or more miles (10+ km)
Ceiling: at least 12,000 feet AGL
Clouds: sky clear below 12,000 feet AGL
Weather: no significant weather observed at this time

METAR text: UHPP 202130Z 34002MPS 300V020 9999 NSC 01/M03 Q1025 R34L/CLRD70 NOSIG RMK QFE765/1021
Conditions at: UHPP (PETROPAVLOVSK-KA, RU) observed 2130 UTC 20 April 2019
Temperature: 1.0°C (34°F)
Dewpoint: -3.0°C (27°F) [RH = 75%]
Pressure (altimeter): 30.27 inches Hg (1025.0 mb)
Winds: from the NNW (340 degrees) at 5 MPH (4 knots; 2.1 m/s)
Visibility: 6 or more miles (10+ km)
Ceiling: at least 12,000 feet AGL
Clouds: sky clear below 12,000 feet AGL
Weather: no significant weather observed at this time

METAR text: UHPP 202100Z 33002MPS 300V360 9999 NSC M01/M03 Q1025 R34L/CLRD70 NOSIG RMK QFE765/1021
Conditions at: UHPP (PETROPAVLOVSK-KA, RU) observed 2100 UTC 20 April 2019
Temperature: -1.0°C (30°F)
Dewpoint: -3.0°C (27°F) [RH = 86%]
Pressure (altimeter): 30.27 inches Hg (1025.0 mb)
Winds: from the NNW (330 degrees) at 5 MPH (4 knots; 2.1 m/s)
Visibility: 6 or more miles (10+ km)
Ceiling: at least 12,000 feet AGL
Clouds: sky clear below 12,000 feet AGL
Weather: no significant weather observed at this time

METAR text: UHPP 202030Z 36002MPS 9999 NSC M02/M04 Q1025 R34L/CLRD70 NOSIG RMK QFE765/1021
Conditions at: UHPP (PETROPAVLOVSK-KA, RU) observed 2030 UTC 20 April 2019
Temperature: -2.0°C (28°F)
Dewpoint: -4.0°C (25°F) [RH = 86%]
Pressure (altimeter): 30.27 inches Hg (1025.0 mb)
Winds: from the N (360 degrees) at 5 MPH (4 knots; 2.1 m/s)
Visibility: 6 or more miles (10+ km)
Ceiling: at least 12,000 feet AGL
Clouds: sky clear below 12,000 feet AGL
Weather: no significant weather observed at this time

METAR text: UHPP 202000Z 01002MPS 9999 NSC M02/M04 Q1025 R34L/CLRD70 NOSIG RMK QFE765/1021
Conditions at: UHPP (PETROPAVLOVSK-KA, RU) observed 2000 UTC 20 April 2019
Temperature: -2.0°C (28°F)
Dewpoint: -4.0°C (25°F) [RH = 86%]
Pressure (altimeter): 30.27 inches Hg (1025.0 mb)
Winds: from the N (10 degrees) at 5 MPH (4 knots; 2.1 m/s)
Visibility: 6 or more miles (10+ km)
Ceiling: at least 12,000 feet AGL
Clouds: sky clear below 12,000 feet AGL
Weather: no significant weather observed at this time

METAR text: UHPP 201930Z 01002MPS 9999 NSC M03/M05 Q1025 R34L/CLRD70 NOSIG RMK QFE765/1021
Conditions at: UHPP (PETROPAVLOVSK-KA, RU) observed 1930 UTC 20 April 2019
Temperature: -3.0°C (27°F)
Dewpoint: -5.0°C (23°F) [RH = 86%]
Pressure (altimeter): 30.27 inches Hg (1025.0 mb)
Winds: from the N (10 degrees) at 5 MPH (4 knots; 2.1 m/s)
Visibility: 6 or more miles (10+ km)
Ceiling: at least 12,000 feet AGL
Clouds: sky clear below 12,000 feet AGL
Weather: no significant weather observed at this time

METAR text: UHPP 201900Z 02002MPS 9999 NSC M04/M05 Q1025 R34L/CLRD70 NOSIG RMK QFE765/1021
Conditions at: UHPP (PETROPAVLOVSK-KA, RU) observed 1900 UTC 20 April 2019
Temperature: -4.0°C (25°F)
Dewpoint: -5.0°C (23°F) [RH = 93%]
Pressure (altimeter): 30.27 inches Hg (1025.0 mb)
Winds: from the NNE (20 degrees) at 5 MPH (4 knots; 2.1 m/s)
Visibility: 6 or more miles (10+ km)
Ceiling: at least 12,000 feet AGL
Clouds: sky clear below 12,000 feet AGL
Weather: no significant weather observed at this time

METAR text: UHPP 201800Z 03003MPS 9999 NSC M04/M05 Q1025 R16R/CLRD70 NOSIG RMK QFE766/1021
Conditions at: UHPP (PETROPAVLOVSK-KA, RU) observed 1800 UTC 20 April 2019
Temperature: -4.0°C (25°F)
Dewpoint: -5.0°C (23°F) [RH = 93%]
Pressure (altimeter): 30.27 inches Hg (1025.0 mb)
Winds: from the NNE (30 degrees) at 7 MPH (6 knots; 3.1 m/s)
Visibility: 6 or more miles (10+ km)
Ceiling: at least 12,000 feet AGL
Clouds: sky clear below 12,000 feet AGL
Weather: no significant weather observed at this time

METAR text: UHPP 201700Z 03003MPS 9999 NSC M04/M05 Q1026 R16R/CLRD70 NOSIG RMK QFE766/1021
Conditions at: UHPP (PETROPAVLOVSK-KA, RU) observed 1700 UTC 20 April 2019
Temperature: -4.0°C (25°F)
Dewpoint: -5.0°C (23°F) [RH = 93%]
Pressure (altimeter): 30.30 inches Hg (1026.0 mb)
Winds: from the NNE (30 degrees) at 7 MPH (6 knots; 3.1 m/s)
Visibility: 6 or more miles (10+ km)
Ceiling: at least 12,000 feet AGL
Clouds: sky clear below 12,000 feet AGL
Weather: no significant weather observed at this time

METAR text: UHPP 201600Z 02002MPS 9999 NSC M03/M05 Q1026 R16R/CLRD70 NOSIG RMK QFE766/1022
Conditions at: UHPP (PETROPAVLOVSK-KA, RU) observed 1600 UTC 20 April 2019
Temperature: -3.0°C (27°F)
Dewpoint: -5.0°C (23°F) [RH = 86%]
Pressure (altimeter): 30.30 inches Hg (1026.0 mb)
Winds: from the NNE (20 degrees) at 5 MPH (4 knots; 2.1 m/s)
Visibility: 6 or more miles (10+ km)
Ceiling: at least 12,000 feet AGL
Clouds: sky clear below 12,000 feet AGL
Weather: no significant weather observed at this time

Forecast for: UHPP (PETROPAVLOVSK-KA, RU)
Text: TAF UHPP 220159Z 2203/2309 16003G12MPS 9999 BKN030CB
Forecast period: 0300 UTC 22 April 2019 to 0900 UTC 23 April 2019
Forecast type: FROM: standard forecast or significant change
Winds: from the SSE (160 degrees) at 7 MPH (6 knots; 3.1 m/s)
gusting to 26 MPH (23 knots; 11.8 m/s)
Visibility: 6 or more miles 10+ km)
Ceiling: 3000 feet AGL
Clouds: broken clouds at 3000 feet AGL
Weather: no significant weather forecast for this period
Text: TEMPO 2303/2309 2000 SHRASN BR BKN006 OVC020CB
Forecast period: 0300 to 0900 UTC 23 April 2019
Forecast type: TEMPORARY: The following changes expected for less than half the time period
Visibility: 1.24 miles (2.00 km)
Ceiling: 600 feet AGL
Clouds: broken clouds at 600 feet AGL
overcast cloud deck at 2000 feet AGL
Weather: SHRA SHSN BR  (rain showers, snow showers, mist)